sensor_id;sensor_type;location;lat;lon;timestamp;temperature;humidity
33811;DHT22;20119;48.334;16.206;2023-06-22T14:40:00;31.00;99.90
33811;DHT22;20119;48.334;16.206;2023-06-22T14:42:32;31.20;99.90
33811;DHT22;20119;48.334;16.206;2023-06-22T14:47:53;31.10;99.90
33811;DHT22;20119;48.334;16.206;2023-06-22T14:50:48;31.20;99.90
33811;DHT22;20119;48.334;16.206;2023-06-22T14:53:21;31.10;99.90
33811;DHT22;20119;48.334;16.206;2023-06-22T14:55:55;31.20;99.90
33811;DHT22;20119;48.334;16.206;2023-06-22T14:58:34;31.20;99.90
33811;DHT22;20119;48.334;16.206;2023-06-22T15:04:01;31.30;99.90
33811;DHT22;20119;48.334;16.206;2023-06-22T15:06:51;31.40;99.90
33811;DHT22;20119;48.334;16.206;2023-06-22T15:10:07;31.50;99.90
33811;DHT22;20119;48.334;16.206;2023-06-22T15:15:34;31.70;99.90
33811;DHT22;20119;48.334;16.206;2023-06-22T15:18:11;31.50;99.90
33811;DHT22;20119;48.334;16.206;2023-06-22T15:23:27;31.30;99.90
33811;DHT22;20119;48.334;16.206;2023-06-22T15:26:17;31.10;99.90
33811;DHT22;20119;48.334;16.206;2023-06-22T15:28:49;31.30;99.90
33811;DHT22;20119;48.334;16.206;2023-06-22T15:31:21;31.20;99.90
33811;DHT22;20119;48.334;16.206;2023-06-22T15:39:21;31.20;99.90
33811;DHT22;20119;48.334;16.206;2023-06-22T15:41:57;31.10;99.90
33811;DHT22;20119;48.334;16.206;2023-06-22T15:44:34;31.10;99.90
33811;DHT22;20119;48.334;16.206;2023-06-22T15:47:05;31.00;99.90
33811;DHT22;20119;48.334;16.206;2023-06-22T15:49:43;30.90;99.90
33811;DHT22;20119;48.334;16.206;2023-06-22T15:52:33;31.00;99.90
33811;DHT22;20119;48.334;16.206;2023-06-22T15:55:14;31.10;99.90
33811;DHT22;20119;48.334;16.206;2023-06-22T15:58:03;31.10;99.90
33811;DHT22;20119;48.334;16.206;2023-06-22T16:00:51;31.10;99.90
33811;DHT22;20119;48.334;16.206;2023-06-22T16:03:28;31.20;99.90
33811;DHT22;20119;48.334;16.206;2023-06-22T16:05:59;31.10;99.90
33811;DHT22;20119;48.334;16.206;2023-06-22T16:08:37;31.10;99.90
33811;DHT22;20119;48.334;16.206;2023-06-22T16:11:24;31.00;99.90
33811;DHT22;20119;48.334;16.206;2023-06-22T16:13:52;30.80;99.90
33811;DHT22;20119;48.334;16.206;2023-06-22T16:16:18;30.70;99.90
33811;DHT22;20119;48.334;16.206;2023-06-22T16:18:46;30.80;99.90
33811;DHT22;20119;48.334;16.206;2023-06-22T16:21:14;30.90;99.90
33811;DHT22;20119;48.334;16.206;2023-06-22T16:23:41;30.90;99.90
33811;DHT22;20119;48.334;16.206;2023-06-22T16:26:09;30.80;99.90
33811;DHT22;20119;48.334;16.206;2023-06-22T16:28:36;30.80;99.90
33811;DHT22;20119;48.334;16.206;2023-06-22T16:31:03;30.70;99.90
33811;DHT22;20119;48.334;16.206;2023-06-22T16:33:30;30.60;99.90
33811;DHT22;20119;48.334;16.206;2023-06-22T16:35:58;30.60;99.90
33811;DHT22;20119;48.334;16.206;2023-06-22T16:38:26;30.50;99.90
33811;DHT22;20119;48.334;16.206;2023-06-22T16:40:55;30.70;99.90
33811;DHT22;20119;48.334;16.206;2023-06-22T16:43:22;30.60;99.90
33811;DHT22;20119;48.334;16.206;2023-06-22T16:45:50;30.70;99.90
33811;DHT22;20119;48.334;16.206;2023-06-22T16:48:17;30.60;99.90
33811;DHT22;20119;48.334;16.206;2023-06-22T16:50:46;30.60;99.90
33811;DHT22;20119;48.334;16.206;2023-06-22T16:53:14;30.50;99.90
33811;DHT22;20119;48.334;16.206;2023-06-22T16:55:42;30.50;99.90
33811;DHT22;20119;48.334;16.206;2023-06-22T16:58:10;30.40;99.90
33811;DHT22;20119;48.334;16.206;2023-06-22T17:00:38;30.20;99.90
33811;DHT22;20119;48.334;16.206;2023-06-22T17:03:06;30.30;99.90
33811;DHT22;20119;48.334;16.206;2023-06-22T17:05:36;30.20;99.90
33811;DHT22;20119;48.334;16.206;2023-06-22T17:08:04;30.00;99.90
33811;DHT22;20119;48.334;16.206;2023-06-22T17:10:33;29.90;99.90
33811;DHT22;20119;48.334;16.206;2023-06-22T17:13:00;29.90;99.90
33811;DHT22;20119;48.334;16.206;2023-06-22T17:15:28;29.90;99.90
33811;DHT22;20119;48.334;16.206;2023-06-22T17:17:57;29.70;99.90
33811;DHT22;20119;48.334;16.206;2023-06-22T17:20:24;29.60;99.90
33811;DHT22;20119;48.334;16.206;2023-06-22T17:22:53;29.60;99.90
33811;DHT22;20119;48.334;16.206;2023-06-22T17:25:20;29.50;99.90
33811;DHT22;20119;48.334;16.206;2023-06-22T17:27:49;29.50;99.90
33811;DHT22;20119;48.334;16.206;2023-06-22T17:30:17;29.40;99.90
33811;DHT22;20119;48.334;16.206;2023-06-22T17:32:46;29.30;99.90
33811;DHT22;20119;48.334;16.206;2023-06-22T17:35:13;29.40;99.90
33811;DHT22;20119;48.334;16.206;2023-06-22T17:37:46;29.30;99.90
33811;DHT22;20119;48.334;16.206;2023-06-22T17:40:14;29.30;99.90
33811;DHT22;20119;48.334;16.206;2023-06-22T17:42:41;29.30;99.90
33811;DHT22;20119;48.334;16.206;2023-06-22T17:45:15;29.20;99.90
33811;DHT22;20119;48.334;16.206;2023-06-22T17:47:47;29.20;99.90
33811;DHT22;20119;48.334;16.206;2023-06-22T17:50:15;29.20;99.90
33811;DHT22;20119;48.334;16.206;2023-06-22T17:52:47;29.30;99.90
33811;DHT22;20119;48.334;16.206;2023-06-22T17:55:19;29.20;99.90
33811;DHT22;20119;48.334;16.206;2023-06-22T17:57:48;29.20;99.90
33811;DHT22;20119;48.334;16.206;2023-06-22T18:00:18;29.10;99.90
33811;DHT22;20119;48.334;16.206;2023-06-22T18:02:45;29.20;99.90
33811;DHT22;20119;48.334;16.206;2023-06-22T18:05:13;29.10;99.90
33811;DHT22;20119;48.334;16.206;2023-06-22T18:07:41;29.10;99.90
33811;DHT22;20119;48.334;16.206;2023-06-22T18:10:09;29.00;99.90
33811;DHT22;20119;48.334;16.206;2023-06-22T18:12:36;29.00;99.90
33811;DHT22;20119;48.334;16.206;2023-06-22T18:15:05;29.00;99.90
33811;DHT22;20119;48.334;16.206;2023-06-22T18:17:35;29.00;99.90
33811;DHT22;20119;48.334;16.206;2023-06-22T18:20:03;29.00;99.90
33811;DHT22;20119;48.334;16.206;2023-06-22T18:22:32;29.00;99.90
33811;DHT22;20119;48.334;16.206;2023-06-22T18:24:59;29.00;99.90
33811;DHT22;20119;48.334;16.206;2023-06-22T18:27:29;28.80;99.90
33811;DHT22;20119;48.334;16.206;2023-06-22T18:29:56;28.90;99.90
33811;DHT22;20119;48.334;16.206;2023-06-22T18:32:25;28.80;99.90
33811;DHT22;20119;48.334;16.206;2023-06-22T18:34:56;28.80;99.90
33811;DHT22;20119;48.334;16.206;2023-06-22T18:37:23;28.70;99.90
33811;DHT22;20119;48.334;16.206;2023-06-22T18:39:53;28.70;99.90
33811;DHT22;20119;48.334;16.206;2023-06-22T18:42:21;28.70;99.90
33811;DHT22;20119;48.334;16.206;2023-06-22T18:44:51;28.60;99.90
33811;DHT22;20119;48.334;16.206;2023-06-22T18:47:25;28.60;99.90
33811;DHT22;20119;48.334;16.206;2023-06-22T18:49:52;28.60;99.90
33811;DHT22;20119;48.334;16.206;2023-06-22T18:52:24;28.60;99.90
33811;DHT22;20119;48.334;16.206;2023-06-22T18:54:52;28.60;99.90
33811;DHT22;20119;48.334;16.206;2023-06-22T18:57:21;28.50;99.90
33811;DHT22;20119;48.334;16.206;2023-06-22T18:59:49;28.50;99.90
33811;DHT22;20119;48.334;16.206;2023-06-22T19:05:05;28.20;99.90
33811;DHT22;20119;48.334;16.206;2023-06-22T19:10:22;28.20;99.90
33811;DHT22;20119;48.334;16.206;2023-06-22T19:12:50;28.30;99.90
33811;DHT22;20119;48.334;16.206;2023-06-22T19:15:17;28.20;99.90
33811;DHT22;20119;48.334;16.206;2023-06-22T19:17:45;28.20;99.90
33811;DHT22;20119;48.334;16.206;2023-06-22T19:20:13;28.10;99.90
33811;DHT22;20119;48.334;16.206;2023-06-22T19:22:49;28.10;99.90
33811;DHT22;20119;48.334;16.206;2023-06-22T19:25:20;28.10;99.90
33811;DHT22;20119;48.334;16.206;2023-06-22T19:27:49;28.10;99.90
33811;DHT22;20119;48.334;16.206;2023-06-22T19:30:20;28.00;99.90
33811;DHT22;20119;48.334;16.206;2023-06-22T19:32:48;28.00;99.90
33811;DHT22;20119;48.334;16.206;2023-06-22T19:35:15;28.00;99.90
33811;DHT22;20119;48.334;16.206;2023-06-22T19:37:43;28.00;99.90
33811;DHT22;20119;48.334;16.206;2023-06-22T19:40:10;28.00;99.90
33811;DHT22;20119;48.334;16.206;2023-06-22T19:42:38;27.90;99.90
33811;DHT22;20119;48.334;16.206;2023-06-22T19:45:08;27.80;99.90
33811;DHT22;20119;48.334;16.206;2023-06-22T19:47:35;27.90;99.90
33811;DHT22;20119;48.334;16.206;2023-06-22T19:50:03;27.90;99.90
33811;DHT22;20119;48.334;16.206;2023-06-22T19:52:37;27.90;99.90
33811;DHT22;20119;48.334;16.206;2023-06-22T19:55:04;27.80;99.90
33811;DHT22;20119;48.334;16.206;2023-06-22T19:57:35;27.80;99.90
33811;DHT22;20119;48.334;16.206;2023-06-22T20:00:03;27.80;99.90
33811;DHT22;20119;48.334;16.206;2023-06-22T20:02:41;27.80;99.90
33811;DHT22;20119;48.334;16.206;2023-06-22T20:05:11;27.80;99.90
33811;DHT22;20119;48.334;16.206;2023-06-22T20:07:43;27.80;99.90
33811;DHT22;20119;48.334;16.206;2023-06-22T20:10:13;27.80;99.90
33811;DHT22;20119;48.334;16.206;2023-06-22T20:12:40;27.70;99.90
33811;DHT22;20119;48.334;16.206;2023-06-22T20:15:14;27.70;99.90
33811;DHT22;20119;48.334;16.206;2023-06-22T20:17:42;27.60;99.90
33811;DHT22;20119;48.334;16.206;2023-06-22T20:20:19;27.70;99.90
33811;DHT22;20119;48.334;16.206;2023-06-22T20:22:48;27.60;99.90
33811;DHT22;20119;48.334;16.206;2023-06-22T20:25:19;27.70;99.90
33811;DHT22;20119;48.334;16.206;2023-06-22T20:27:48;27.70;99.90
33811;DHT22;20119;48.334;16.206;2023-06-22T20:30:15;27.60;99.90
33811;DHT22;20119;48.334;16.206;2023-06-22T20:32:47;27.50;99.90
33811;DHT22;20119;48.334;16.206;2023-06-22T20:35:15;27.50;99.90
33811;DHT22;20119;48.334;16.206;2023-06-22T20:37:42;27.40;99.90
33811;DHT22;20119;48.334;16.206;2023-06-22T20:40:10;27.30;99.90
33811;DHT22;20119;48.334;16.206;2023-06-22T20:42:37;27.30;99.90
33811;DHT22;20119;48.334;16.206;2023-06-22T20:45:05;27.30;99.90
33811;DHT22;20119;48.334;16.206;2023-06-22T20:47:32;27.30;99.90
33811;DHT22;20119;48.334;16.206;2023-06-22T20:50:01;27.30;99.90
33811;DHT22;20119;48.334;16.206;2023-06-22T20:55:17;27.30;99.90
33811;DHT22;20119;48.334;16.206;2023-06-22T20:57:44;27.30;99.90
33811;DHT22;20119;48.334;16.206;2023-06-22T21:00:11;27.30;99.90
33811;DHT22;20119;48.334;16.206;2023-06-22T21:02:39;27.30;99.90
33811;DHT22;20119;48.334;16.206;2023-06-22T21:05:08;27.30;99.90
33811;DHT22;20119;48.334;16.206;2023-06-22T21:07:35;27.40;99.90
33811;DHT22;20119;48.334;16.206;2023-06-22T21:10:03;27.40;99.90
33811;DHT22;20119;48.334;16.206;2023-06-22T21:12:30;27.40;99.90
33811;DHT22;20119;48.334;16.206;2023-06-22T21:14:58;27.40;99.90
33811;DHT22;20119;48.334;16.206;2023-06-22T21:17:25;27.40;99.90
33811;DHT22;20119;48.334;16.206;2023-06-22T21:19:52;27.30;99.90
33811;DHT22;20119;48.334;16.206;2023-06-22T21:22:21;27.40;99.90
33811;DHT22;20119;48.334;16.206;2023-06-22T21:25:02;27.30;99.90
33811;DHT22;20119;48.334;16.206;2023-06-22T21:27:30;27.30;99.90
33811;DHT22;20119;48.334;16.206;2023-06-22T21:29:57;27.30;99.90
33811;DHT22;20119;48.334;16.206;2023-06-22T21:32:24;27.30;99.90
33811;DHT22;20119;48.334;16.206;2023-06-22T21:34:52;27.20;99.90
